sensor_id;sensor_type;location;lat;lon;timestamp;pressure;altitude;pressure_sealevel;temperature;humidity
82245;BME280;71849;50.096;14.458;2024-01-06T00:00:07;98430.72;;;9.33;64.50
82245;BME280;71849;50.096;14.458;2024-01-06T00:02:35;98425.22;;;9.45;63.97
82245;BME280;71849;50.096;14.458;2024-01-06T00:05:05;98424.38;;;9.44;63.75
82245;BME280;71849;50.096;14.458;2024-01-06T00:07:33;98433.84;;;9.42;64.13
82245;BME280;71849;50.096;14.458;2024-01-06T00:10:06;98435.84;;;9.29;64.72
82245;BME280;71849;50.096;14.458;2024-01-06T00:12:34;98433.94;;;9.30;64.90
82245;BME280;71849;50.096;14.458;2024-01-06T00:15:04;98427.78;;;9.18;65.41
82245;BME280;71849;50.096;14.458;2024-01-06T00:17:33;98422.59;;;9.33;64.22
82245;BME280;71849;50.096;14.458;2024-01-06T00:20:02;98426.03;;;8.95;65.72
82245;BME280;71849;50.096;14.458;2024-01-06T00:22:31;98421.75;;;8.99;65.36
82245;BME280;71849;50.096;14.458;2024-01-06T00:24:59;98420.63;;;9.12;65.23
82245;BME280;71849;50.096;14.458;2024-01-06T00:27:30;98421.75;;;9.16;65.04
82245;BME280;71849;50.096;14.458;2024-01-06T00:29:59;98429.00;;;9.27;64.67
82245;BME280;71849;50.096;14.458;2024-01-06T00:32:28;98425.78;;;9.13;65.28
82245;BME280;71849;50.096;14.458;2024-01-06T00:34:58;98432.63;;;8.99;65.89
82245;BME280;71849;50.096;14.458;2024-01-06T00:37:26;98429.00;;;9.10;66.17
82245;BME280;71849;50.096;14.458;2024-01-06T00:39:55;98435.97;;;8.90;67.00
82245;BME280;71849;50.096;14.458;2024-01-06T00:42:23;98435.13;;;8.44;68.37
82245;BME280;71849;50.096;14.458;2024-01-06T00:44:54;98437.03;;;8.44;68.46
82245;BME280;71849;50.096;14.458;2024-01-06T00:47:23;98443.00;;;8.74;68.02
82245;BME280;71849;50.096;14.458;2024-01-06T00:49:52;98437.38;;;8.92;67.23
82245;BME280;71849;50.096;14.458;2024-01-06T00:52:20;98433.59;;;8.93;67.37
82245;BME280;71849;50.096;14.458;2024-01-06T00:54:49;98441.75;;;9.10;66.73
82245;BME280;71849;50.096;14.458;2024-01-06T00:57:17;98444.38;;;9.38;65.52
82245;BME280;71849;50.096;14.458;2024-01-06T00:59:49;98442.47;;;9.55;64.63
82245;BME280;71849;50.096;14.458;2024-01-06T01:02:23;98441.25;;;9.29;65.63
82245;BME280;71849;50.096;14.458;2024-01-06T01:04:51;98444.22;;;9.45;64.95
82245;BME280;71849;50.096;14.458;2024-01-06T01:07:22;98452.09;;;9.46;64.92
82245;BME280;71849;50.096;14.458;2024-01-06T01:09:53;98451.63;;;9.32;64.67
82245;BME280;71849;50.096;14.458;2024-01-06T01:12:22;98457.78;;;9.45;64.61
82245;BME280;71849;50.096;14.458;2024-01-06T01:14:51;98463.13;;;9.23;65.57
82245;BME280;71849;50.096;14.458;2024-01-06T01:17:23;98468.66;;;9.28;65.76
82245;BME280;71849;50.096;14.458;2024-01-06T01:19:52;98469.88;;;9.37;64.10
82245;BME280;71849;50.096;14.458;2024-01-06T01:22:21;98465.69;;;9.46;63.82
82245;BME280;71849;50.096;14.458;2024-01-06T01:24:49;98464.53;;;9.25;64.15
82245;BME280;71849;50.096;14.458;2024-01-06T01:27:18;98460.00;;;9.14;65.11
82245;BME280;71849;50.096;14.458;2024-01-06T01:29:48;98473.97;;;9.06;65.31
82245;BME280;71849;50.096;14.458;2024-01-06T01:32:18;98474.22;;;9.05;66.11
82245;BME280;71849;50.096;14.458;2024-01-06T01:34:49;98464.81;;;9.24;65.36
82245;BME280;71849;50.096;14.458;2024-01-06T01:37:18;98458.34;;;9.13;65.82
82245;BME280;71849;50.096;14.458;2024-01-06T01:39:47;98453.50;;;9.15;65.70
82245;BME280;71849;50.096;14.458;2024-01-06T01:42:15;98465.22;;;9.32;64.80
82245;BME280;71849;50.096;14.458;2024-01-06T01:44:44;98459.94;;;9.26;64.62
82245;BME280;71849;50.096;14.458;2024-01-06T01:47:13;98467.94;;;8.88;66.24
82245;BME280;71849;50.096;14.458;2024-01-06T01:49:44;98464.84;;;9.12;65.41
82245;BME280;71849;50.096;14.458;2024-01-06T01:52:16;98465.88;;;8.78;66.38
82245;BME280;71849;50.096;14.458;2024-01-06T01:54:45;98468.75;;;8.88;66.65
82245;BME280;71849;50.096;14.458;2024-01-06T01:57:15;98463.22;;;9.11;65.82
82245;BME280;71849;50.096;14.458;2024-01-06T01:59:45;98460.09;;;9.19;65.34
82245;BME280;71849;50.096;14.458;2024-01-06T02:02:14;98465.50;;;9.03;65.93
82245;BME280;71849;50.096;14.458;2024-01-06T02:04:42;98460.75;;;9.10;66.11
82245;BME280;71849;50.096;14.458;2024-01-06T02:07:16;98457.28;;;8.98;66.30
82245;BME280;71849;50.096;14.458;2024-01-06T02:09:44;98464.25;;;8.94;66.82
82245;BME280;71849;50.096;14.458;2024-01-06T02:12:13;98450.88;;;9.04;66.69
82245;BME280;71849;50.096;14.458;2024-01-06T02:14:41;98455.47;;;9.03;66.66
82245;BME280;71849;50.096;14.458;2024-01-06T02:17:10;98458.78;;;9.22;65.83
82245;BME280;71849;50.096;14.458;2024-01-06T02:19:38;98457.06;;;9.32;65.54
82245;BME280;71849;50.096;14.458;2024-01-06T02:22:09;98457.38;;;9.53;64.20
82245;BME280;71849;50.096;14.458;2024-01-06T02:24:38;98456.97;;;9.44;64.20
82245;BME280;71849;50.096;14.458;2024-01-06T02:27:07;98454.94;;;9.18;64.92
82245;BME280;71849;50.096;14.458;2024-01-06T02:29:35;98459.16;;;8.81;66.25
82245;BME280;71849;50.096;14.458;2024-01-06T02:32:05;98452.63;;;9.26;64.81
82245;BME280;71849;50.096;14.458;2024-01-06T02:34:33;98454.72;;;9.58;63.76
82245;BME280;71849;50.096;14.458;2024-01-06T02:37:03;98451.03;;;9.30;64.54
82245;BME280;71849;50.096;14.458;2024-01-06T02:39:35;98462.72;;;9.48;64.34
82245;BME280;71849;50.096;14.458;2024-01-06T02:42:05;98460.00;;;9.14;65.58
82245;BME280;71849;50.096;14.458;2024-01-06T02:44:33;98459.66;;;9.27;64.61
82245;BME280;71849;50.096;14.458;2024-01-06T02:47:02;98467.25;;;9.59;63.53
82245;BME280;71849;50.096;14.458;2024-01-06T02:49:31;98459.81;;;9.71;62.62
82245;BME280;71849;50.096;14.458;2024-01-06T02:51:59;98460.25;;;9.63;62.05
82245;BME280;71849;50.096;14.458;2024-01-06T02:54:28;98462.88;;;9.24;63.52
82245;BME280;71849;50.096;14.458;2024-01-06T02:56:59;98460.09;;;9.19;63.72
82245;BME280;71849;50.096;14.458;2024-01-06T02:59:28;98462.31;;;9.06;64.18
82245;BME280;71849;50.096;14.458;2024-01-06T03:01:58;98452.69;;;9.31;63.34
82245;BME280;71849;50.096;14.458;2024-01-06T03:04:26;98464.38;;;9.32;64.06
82245;BME280;71849;50.096;14.458;2024-01-06T03:06:55;98461.16;;;9.18;64.57
82245;BME280;71849;50.096;14.458;2024-01-06T03:09:24;98472.69;;;9.25;64.99
82245;BME280;71849;50.096;14.458;2024-01-06T03:11:52;98469.47;;;9.28;64.88
82245;BME280;71849;50.096;14.458;2024-01-06T03:14:25;98474.56;;;9.25;64.10
82245;BME280;71849;50.096;14.458;2024-01-06T03:16:54;98467.25;;;9.25;64.08
82245;BME280;71849;50.096;14.458;2024-01-06T03:19:24;98479.81;;;8.98;65.22
82245;BME280;71849;50.096;14.458;2024-01-06T03:21:53;98475.22;;;8.99;65.37
82245;BME280;71849;50.096;14.458;2024-01-06T03:24:23;98458.63;;;9.12;64.79
82245;BME280;71849;50.096;14.458;2024-01-06T03:26:51;98465.44;;;9.48;63.49
82245;BME280;71849;50.096;14.458;2024-01-06T03:29:20;98468.06;;;9.43;63.38
82245;BME280;71849;50.096;14.458;2024-01-06T03:31:51;98457.63;;;9.34;64.70
82245;BME280;71849;50.096;14.458;2024-01-06T03:34:20;98455.81;;;9.23;65.05
82245;BME280;71849;50.096;14.458;2024-01-06T03:36:48;98454.47;;;9.09;65.01
82245;BME280;71849;50.096;14.458;2024-01-06T03:39:17;98458.63;;;9.28;64.41
82245;BME280;71849;50.096;14.458;2024-01-06T03:41:45;98460.50;;;9.28;64.81
82245;BME280;71849;50.096;14.458;2024-01-06T03:44:14;98466.84;;;9.17;65.10
82245;BME280;71849;50.096;14.458;2024-01-06T03:46:43;98463.06;;;9.18;65.31
82245;BME280;71849;50.096;14.458;2024-01-06T03:49:14;98459.19;;;9.30;65.21
82245;BME280;71849;50.096;14.458;2024-01-06T03:51:46;98456.47;;;9.30;64.91
82245;BME280;71849;50.096;14.458;2024-01-06T03:54:14;98468.56;;;9.40;64.93
82245;BME280;71849;50.096;14.458;2024-01-06T03:56:43;98465.22;;;9.32;65.06
82245;BME280;71849;50.096;14.458;2024-01-06T03:59:12;98468.50;;;9.51;64.31
82245;BME280;71849;50.096;14.458;2024-01-06T04:01:42;98455.94;;;9.67;64.01
82245;BME280;71849;50.096;14.458;2024-01-06T04:04:11;98461.31;;;9.62;64.20
82245;BME280;71849;50.096;14.458;2024-01-06T04:06:42;98450.53;;;9.50;64.55
82245;BME280;71849;50.096;14.458;2024-01-06T04:09:10;98456.69;;;9.46;64.29
82245;BME280;71849;50.096;14.458;2024-01-06T04:11:39;98451.47;;;9.39;64.87
82245;BME280;71849;50.096;14.458;2024-01-06T04:14:08;98460.25;;;9.29;65.54
82245;BME280;71849;50.096;14.458;2024-01-06T04:16:36;98455.22;;;9.21;66.41
82245;BME280;71849;50.096;14.458;2024-01-06T04:19:06;98448.41;;;9.36;65.72
82245;BME280;71849;50.096;14.458;2024-01-06T04:21:36;98453.59;;;9.20;66.35
82245;BME280;71849;50.096;14.458;2024-01-06T04:24:10;98449.81;;;9.05;66.83
82245;BME280;71849;50.096;14.458;2024-01-06T04:26:38;98466.16;;;8.93;67.27
82245;BME280;71849;50.096;14.458;2024-01-06T04:29:10;98458.13;;;8.70;67.81
82245;BME280;71849;50.096;14.458;2024-01-06T04:31:40;98455.59;;;8.52;68.54
82245;BME280;71849;50.096;14.458;2024-01-06T04:34:08;98454.16;;;8.61;68.71
82245;BME280;71849;50.096;14.458;2024-01-06T04:36:37;98460.53;;;8.83;67.81
82245;BME280;71849;50.096;14.458;2024-01-06T04:39:08;98455.19;;;8.88;67.34
82245;BME280;71849;50.096;14.458;2024-01-06T04:41:38;98453.22;;;8.84;67.71
82245;BME280;71849;50.096;14.458;2024-01-06T04:44:07;98459.50;;;8.84;67.71
82245;BME280;71849;50.096;14.458;2024-01-06T04:46:36;98464.47;;;8.75;68.07
82245;BME280;71849;50.096;14.458;2024-01-06T04:49:04;98463.88;;;8.57;68.66
82245;BME280;71849;50.096;14.458;2024-01-06T04:51:33;98463.88;;;8.57;68.81
82245;BME280;71849;50.096;14.458;2024-01-06T04:54:01;98464.72;;;8.46;69.25
82245;BME280;71849;50.096;14.458;2024-01-06T04:56:32;98475.13;;;8.65;68.57
82245;BME280;71849;50.096;14.458;2024-01-06T04:59:01;98479.34;;;8.45;69.19
82245;BME280;71849;50.096;14.458;2024-01-06T05:01:30;98474.56;;;8.12;70.17
82245;BME280;71849;50.096;14.458;2024-01-06T05:03:58;98484.78;;;8.33;69.69
82245;BME280;71849;50.096;14.458;2024-01-06T05:06:26;98491.47;;;8.54;68.87
82245;BME280;71849;50.096;14.458;2024-01-06T05:08:55;98486.94;;;8.19;69.87
82245;BME280;71849;50.096;14.458;2024-01-06T05:11:23;98483.28;;;8.65;68.43
82245;BME280;71849;50.096;14.458;2024-01-06T05:13:54;98488.22;;;8.68;68.01
82245;BME280;71849;50.096;14.458;2024-01-06T05:16:23;98485.31;;;8.87;67.20
82245;BME280;71849;50.096;14.458;2024-01-06T05:18:53;98482.47;;;8.82;67.05
82245;BME280;71849;50.096;14.458;2024-01-06T05:21:21;98476.53;;;8.40;68.72
82245;BME280;71849;50.096;14.458;2024-01-06T05:23:53;98482.97;;;8.50;68.50
82245;BME280;71849;50.096;14.458;2024-01-06T05:26:22;98471.25;;;8.61;68.11
82245;BME280;71849;50.096;14.458;2024-01-06T05:28:54;98481.56;;;8.76;67.34
82245;BME280;71849;50.096;14.458;2024-01-06T05:31:24;98483.63;;;8.69;67.82
82245;BME280;71849;50.096;14.458;2024-01-06T05:33:54;98486.25;;;8.52;68.02
82245;BME280;71849;50.096;14.458;2024-01-06T05:36:22;98492.47;;;8.64;68.12
82245;BME280;71849;50.096;14.458;2024-01-06T05:38:53;98497.50;;;8.72;67.87
82245;BME280;71849;50.096;14.458;2024-01-06T05:41:22;98486.75;;;8.77;67.38
82245;BME280;71849;50.096;14.458;2024-01-06T05:43:50;98497.69;;;8.83;67.21
82245;BME280;71849;50.096;14.458;2024-01-06T05:46:25;98494.47;;;8.69;67.58
82245;BME280;71849;50.096;14.458;2024-01-06T05:48:54;98503.94;;;8.55;68.21
82245;BME280;71849;50.096;14.458;2024-01-06T05:51:22;98495.81;;;8.83;67.49
82245;BME280;71849;50.096;14.458;2024-01-06T05:53:51;98502.75;;;8.62;67.86
82245;BME280;71849;50.096;14.458;2024-01-06T05:56:25;98504.47;;;8.97;67.00
82245;BME280;71849;50.096;14.458;2024-01-06T05:58:55;98517.47;;;8.95;67.04
82245;BME280;71849;50.096;14.458;2024-01-06T06:01:26;98518.72;;;9.04;66.52
82245;BME280;71849;50.096;14.458;2024-01-06T06:03:55;98520.16;;;8.95;67.17
82245;BME280;71849;50.096;14.458;2024-01-06T06:06:23;98527.81;;;8.98;66.62
82245;BME280;71849;50.096;14.458;2024-01-06T06:08:52;98530.47;;;8.93;66.97
82245;BME280;71849;50.096;14.458;2024-01-06T06:11:21;98529.03;;;8.62;68.05
82245;BME280;71849;50.096;14.458;2024-01-06T06:13:50;98546.97;;;8.63;67.96
82245;BME280;71849;50.096;14.458;2024-01-06T06:16:19;98546.22;;;8.67;68.14
82245;BME280;71849;50.096;14.458;2024-01-06T06:18:50;98551.97;;;8.19;69.47
82245;BME280;71849;50.096;14.458;2024-01-06T06:21:18;98551.72;;;8.21;69.62
82245;BME280;71849;50.096;14.458;2024-01-06T06:23:47;98558.56;;;8.23;69.76
82245;BME280;71849;50.096;14.458;2024-01-06T06:26:15;98560.22;;;8.13;69.98
82245;BME280;71849;50.096;14.458;2024-01-06T06:28:44;98564.13;;;8.29;69.49
82245;BME280;71849;50.096;14.458;2024-01-06T06:31:13;98562.81;;;8.43;69.01
82245;BME280;71849;50.096;14.458;2024-01-06T06:33:41;98569.44;;;8.35;69.05
82245;BME280;71849;50.096;14.458;2024-01-06T06:36:13;98567.53;;;7.89;70.70
82245;BME280;71849;50.096;14.458;2024-01-06T06:38:41;98571.66;;;8.03;70.44
82245;BME280;71849;50.096;14.458;2024-01-06T06:41:10;98588.25;;;8.07;70.53
82245;BME280;71849;50.096;14.458;2024-01-06T06:43:38;98585.66;;;7.65;71.71
82245;BME280;71849;50.096;14.458;2024-01-06T06:46:08;98577.28;;;7.14;73.84
82245;BME280;71849;50.096;14.458;2024-01-06T06:48:36;98588.69;;;7.57;72.27
82245;BME280;71849;50.096;14.458;2024-01-06T06:51:05;98581.19;;;7.59;72.03
82245;BME280;71849;50.096;14.458;2024-01-06T06:53:37;98590.97;;;7.95;71.29
82245;BME280;71849;50.096;14.458;2024-01-06T06:56:06;98589.22;;;8.36;69.75
82245;BME280;71849;50.096;14.458;2024-01-06T06:58:35;98590.16;;;8.41;69.38
82245;BME280;71849;50.096;14.458;2024-01-06T07:01:04;98595.44;;;8.59;68.93
82245;BME280;71849;50.096;14.458;2024-01-06T07:03:35;98591.22;;;8.40;69.30
82245;BME280;71849;50.096;14.458;2024-01-06T07:06:04;98599.22;;;8.12;69.59
82245;BME280;71849;50.096;14.458;2024-01-06T07:08:32;98602.06;;;8.17;70.04
82245;BME280;71849;50.096;14.458;2024-01-06T07:11:06;98609.13;;;8.06;70.55
82245;BME280;71849;50.096;14.458;2024-01-06T07:13:36;98614.88;;;8.10;70.27
82245;BME280;71849;50.096;14.458;2024-01-06T07:16:06;98616.53;;;8.22;70.22
82245;BME280;71849;50.096;14.458;2024-01-06T07:18:35;98621.25;;;7.81;71.01
82245;BME280;71849;50.096;14.458;2024-01-06T07:21:04;98623.50;;;7.95;70.70
82245;BME280;71849;50.096;14.458;2024-01-06T07:23:33;98616.41;;;8.06;70.37
82245;BME280;71849;50.096;14.458;2024-01-06T07:26:06;98629.59;;;7.79;71.70
82245;BME280;71849;50.096;14.458;2024-01-06T07:28:35;98618.19;;;7.89;70.63
82245;BME280;71849;50.096;14.458;2024-01-06T07:31:04;98623.03;;;7.98;70.79
82245;BME280;71849;50.096;14.458;2024-01-06T07:33:34;98628.91;;;8.18;70.34
82245;BME280;71849;50.096;14.458;2024-01-06T07:36:03;98630.78;;;8.06;70.38
82245;BME280;71849;50.096;14.458;2024-01-06T07:38:31;98628.06;;;8.18;70.35
82245;BME280;71849;50.096;14.458;2024-01-06T07:41:01;98637.06;;;8.30;70.11
82245;BME280;71849;50.096;14.458;2024-01-06T07:43:32;98641.41;;;8.66;68.88
82245;BME280;71849;50.096;14.458;2024-01-06T07:46:01;98649.63;;;8.83;68.27
82245;BME280;71849;50.096;14.458;2024-01-06T07:48:30;98646.56;;;8.79;68.33
82245;BME280;71849;50.096;14.458;2024-01-06T07:50:58;98652.50;;;8.64;68.76
82245;BME280;71849;50.096;14.458;2024-01-06T07:53:27;98646.84;;;8.66;68.67
82245;BME280;71849;50.096;14.458;2024-01-06T07:55:56;98649.75;;;8.76;68.35
82245;BME280;71849;50.096;14.458;2024-01-06T07:58:28;98656.69;;;7.91;70.66
82245;BME280;71849;50.096;14.458;2024-01-06T08:01:00;98660.66;;;7.65;71.76
82245;BME280;71849;50.096;14.458;2024-01-06T08:03:28;98656.00;;;8.07;70.61
82245;BME280;71849;50.096;14.458;2024-01-06T08:05:57;98659.44;;;8.25;69.91
82245;BME280;71849;50.096;14.458;2024-01-06T08:08:26;98658.16;;;8.40;69.24
82245;BME280;71849;50.096;14.458;2024-01-06T08:10:54;98656.94;;;8.01;70.65
82245;BME280;71849;50.096;14.458;2024-01-06T08:13:23;98660.56;;;7.83;70.81
82245;BME280;71849;50.096;14.458;2024-01-06T08:15:51;98666.13;;;8.00;70.94
82245;BME280;71849;50.096;14.458;2024-01-06T08:18:23;98666.88;;;8.30;70.40
82245;BME280;71849;50.096;14.458;2024-01-06T08:20:52;98664.41;;;8.40;69.70
82245;BME280;71849;50.096;14.458;2024-01-06T08:23:21;98672.66;;;8.45;69.67
82245;BME280;71849;50.096;14.458;2024-01-06T08:25:50;98671.72;;;8.63;69.05
82245;BME280;71849;50.096;14.458;2024-01-06T08:28:18;98674.75;;;8.20;70.24
82245;BME280;71849;50.096;14.458;2024-01-06T08:30:48;98678.25;;;7.86;70.71
82245;BME280;71849;50.096;14.458;2024-01-06T08:33:17;98691.44;;;7.52;73.18
82245;BME280;71849;50.096;14.458;2024-01-06T08:35:48;98688.78;;;8.05;71.66
82245;BME280;71849;50.096;14.458;2024-01-06T08:38:17;98689.94;;;8.21;70.46
82245;BME280;71849;50.096;14.458;2024-01-06T08:40:54;98685.22;;;7.93;70.63
82245;BME280;71849;50.096;14.458;2024-01-06T08:43:23;98694.13;;;7.82;71.60
82245;BME280;71849;50.096;14.458;2024-01-06T08:45:54;98689.31;;;7.84;70.97
82245;BME280;71849;50.096;14.458;2024-01-06T08:48:23;98699.94;;;7.56;72.98
82245;BME280;71849;50.096;14.458;2024-01-06T08:50:56;98698.97;;;7.80;71.36
82245;BME280;71849;50.096;14.458;2024-01-06T08:53:24;98702.28;;;7.04;74.10
82245;BME280;71849;50.096;14.458;2024-01-06T08:55:54;98699.44;;;7.47;72.93
82245;BME280;71849;50.096;14.458;2024-01-06T08:58:25;98707.75;;;7.76;71.79
82245;BME280;71849;50.096;14.458;2024-01-06T09:00:53;98705.13;;;7.57;72.32
82245;BME280;71849;50.096;14.458;2024-01-06T09:03:22;98696.34;;;7.74;72.12
82245;BME280;71849;50.096;14.458;2024-01-06T09:05:51;98696.53;;;7.90;71.47
82245;BME280;71849;50.096;14.458;2024-01-06T09:08:23;98697.94;;;8.04;71.14
82245;BME280;71849;50.096;14.458;2024-01-06T09:10:53;98701.97;;;8.02;70.41
82245;BME280;71849;50.096;14.458;2024-01-06T09:13:22;98705.50;;;8.02;70.71
82245;BME280;71849;50.096;14.458;2024-01-06T09:15:51;98692.16;;;8.01;70.46
82245;BME280;71849;50.096;14.458;2024-01-06T09:18:22;98703.97;;;7.65;71.72
82245;BME280;71849;50.096;14.458;2024-01-06T09:20:51;98693.28;;;7.82;71.25
82245;BME280;71849;50.096;14.458;2024-01-06T09:23:20;98700.94;;;8.72;68.46
82245;BME280;71849;50.096;14.458;2024-01-06T09:25:51;98706.38;;;8.38;68.71
82245;BME280;71849;50.096;14.458;2024-01-06T09:28:20;98697.22;;;8.39;68.66
82245;BME280;71849;50.096;14.458;2024-01-06T09:30:49;98704.41;;;8.56;68.15
82245;BME280;71849;50.096;14.458;2024-01-06T09:33:20;98710.59;;;8.22;68.78
82245;BME280;71849;50.096;14.458;2024-01-06T09:35:48;98710.28;;;8.76;67.57
82245;BME280;71849;50.096;14.458;2024-01-06T09:38:17;98721.13;;;8.65;66.83
82245;BME280;71849;50.096;14.458;2024-01-06T09:40:55;98709.94;;;8.38;67.49
82245;BME280;71849;50.096;14.458;2024-01-06T09:43:24;98717.81;;;8.40;68.37
82245;BME280;71849;50.096;14.458;2024-01-06T09:46:09;98720.06;;;8.43;68.00
82245;BME280;71849;50.096;14.458;2024-01-06T09:48:41;98718.25;;;8.25;68.60
82245;BME280;71849;50.096;14.458;2024-01-06T09:51:11;98728.31;;;8.36;68.60
82245;BME280;71849;50.096;14.458;2024-01-06T09:53:45;98729.00;;;9.01;66.76
82245;BME280;71849;50.096;14.458;2024-01-06T09:56:18;98729.94;;;9.07;65.90
82245;BME280;71849;50.096;14.458;2024-01-06T09:58:47;98722.06;;;8.59;67.63
82245;BME280;71849;50.096;14.458;2024-01-06T10:01:19;98720.88;;;8.66;66.93
82245;BME280;71849;50.096;14.458;2024-01-06T10:03:48;98721.59;;;8.73;66.40
82245;BME280;71849;50.096;14.458;2024-01-06T10:06:17;98731.72;;;8.55;67.77
82245;BME280;71849;50.096;14.458;2024-01-06T10:08:49;98717.47;;;8.59;67.32
82245;BME280;71849;50.096;14.458;2024-01-06T10:11:22;98721.25;;;8.58;67.47
82245;BME280;71849;50.096;14.458;2024-01-06T10:13:52;98715.94;;;8.75;67.08
82245;BME280;71849;50.096;14.458;2024-01-06T10:16:22;98719.25;;;8.54;66.76
82245;BME280;71849;50.096;14.458;2024-01-06T10:18:50;98713.47;;;8.39;67.77
82245;BME280;71849;50.096;14.458;2024-01-06T10:21:23;98712.97;;;8.30;67.67
82245;BME280;71849;50.096;14.458;2024-01-06T10:23:54;98713.19;;;8.17;68.15
82245;BME280;71849;50.096;14.458;2024-01-06T10:26:25;98717.66;;;8.11;69.30
82245;BME280;71849;50.096;14.458;2024-01-06T10:28:54;98720.00;;;8.19;69.17
82245;BME280;71849;50.096;14.458;2024-01-06T10:31:24;98718.22;;;7.72;69.93
82245;BME280;71849;50.096;14.458;2024-01-06T10:33:54;98711.13;;;7.89;69.54
82245;BME280;71849;50.096;14.458;2024-01-06T10:36:23;98728.56;;;7.63;70.47
82245;BME280;71849;50.096;14.458;2024-01-06T10:38:52;98717.34;;;7.78;69.90
82245;BME280;71849;50.096;14.458;2024-01-06T10:41:21;98720.91;;;7.90;70.26
82245;BME280;71849;50.096;14.458;2024-01-06T10:43:54;98709.91;;;7.44;71.03
82245;BME280;71849;50.096;14.458;2024-01-06T10:46:24;98720.22;;;8.06;69.99
82245;BME280;71849;50.096;14.458;2024-01-06T10:48:55;98701.78;;;8.50;68.69
82245;BME280;71849;50.096;14.458;2024-01-06T10:51:27;98700.28;;;8.54;67.82
82245;BME280;71849;50.096;14.458;2024-01-06T10:53:57;98697.75;;;8.17;68.65
82245;BME280;71849;50.096;14.458;2024-01-06T10:56:29;98688.53;;;8.18;69.04
82245;BME280;71849;50.096;14.458;2024-01-06T10:59:03;98691.72;;;8.27;68.79
82245;BME280;71849;50.096;14.458;2024-01-06T11:01:33;98692.03;;;7.84;69.96
82245;BME280;71849;50.096;14.458;2024-01-06T11:04:03;98689.47;;;8.12;69.57
82245;BME280;71849;50.096;14.458;2024-01-06T11:06:33;98685.03;;;8.64;67.25
82245;BME280;71849;50.096;14.458;2024-01-06T11:09:06;98689.16;;;8.90;66.85
82245;BME280;71849;50.096;14.458;2024-01-06T11:11:36;98688.09;;;9.31;64.96
82245;BME280;71849;50.096;14.458;2024-01-06T11:14:22;98683.63;;;9.25;65.25
82245;BME280;71849;50.096;14.458;2024-01-06T11:16:51;98689.00;;;9.37;65.12
82245;BME280;71849;50.096;14.458;2024-01-06T11:19:42;98685.31;;;9.14;65.17
82245;BME280;71849;50.096;14.458;2024-01-06T11:22:23;98686.59;;;9.52;64.69
82245;BME280;71849;50.096;14.458;2024-01-06T11:24:53;98697.75;;;9.39;64.70
82245;BME280;71849;50.096;14.458;2024-01-06T11:27:24;98686.81;;;8.70;67.16
82245;BME280;71849;50.096;14.458;2024-01-06T11:30:00;98687.75;;;8.64;67.67
82245;BME280;71849;50.096;14.458;2024-01-06T11:32:31;98684.59;;;8.56;67.97
82245;BME280;71849;50.096;14.458;2024-01-06T11:35:08;98686.44;;;8.90;67.01
82245;BME280;71849;50.096;14.458;2024-01-06T11:37:50;98687.97;;;8.86;67.21
82245;BME280;71849;50.096;14.458;2024-01-06T11:40:31;98695.66;;;8.31;69.21
82245;BME280;71849;50.096;14.458;2024-01-06T11:43:02;98698.09;;;8.91;67.50
82245;BME280;71849;50.096;14.458;2024-01-06T11:45:35;98691.41;;;8.58;67.89
82245;BME280;71849;50.096;14.458;2024-01-06T11:48:05;98690.47;;;8.53;68.35
82245;BME280;71849;50.096;14.458;2024-01-06T11:50:35;98695.97;;;8.23;69.42
82245;BME280;71849;50.096;14.458;2024-01-06T11:53:07;98696.44;;;8.20;69.15
82245;BME280;71849;50.096;14.458;2024-01-06T11:55:38;98699.94;;;8.09;69.73
82245;BME280;71849;50.096;14.458;2024-01-06T11:58:08;98696.81;;;8.23;69.50
82245;BME280;71849;50.096;14.458;2024-01-06T12:00:39;98694.56;;;8.20;69.54
82245;BME280;71849;50.096;14.458;2024-01-06T12:03:08;98690.84;;;7.92;70.17
82245;BME280;71849;50.096;14.458;2024-01-06T12:05:36;98698.84;;;7.75;70.98
82245;BME280;71849;50.096;14.458;2024-01-06T12:08:06;98698.91;;;8.10;70.36
82245;BME280;71849;50.096;14.458;2024-01-06T12:10:34;98700.28;;;7.89;70.62
82245;BME280;71849;50.096;14.458;2024-01-06T12:13:05;98698.91;;;8.10;69.61
82245;BME280;71849;50.096;14.458;2024-01-06T12:15:34;98703.91;;;7.83;70.64
82245;BME280;71849;50.096;14.458;2024-01-06T12:18:07;98695.50;;;8.26;69.74
82245;BME280;71849;50.096;14.458;2024-01-06T12:20:36;98702.09;;;8.18;69.01
82245;BME280;71849;50.096;14.458;2024-01-06T12:23:05;98688.63;;;8.12;69.35
82245;BME280;71849;50.096;14.458;2024-01-06T12:25:36;98695.22;;;7.93;70.55
82245;BME280;71849;50.096;14.458;2024-01-06T12:28:08;98694.75;;;7.84;70.65
82245;BME280;71849;50.096;14.458;2024-01-06T12:30:38;98687.97;;;8.51;68.78
82245;BME280;71849;50.096;14.458;2024-01-06T12:33:10;98692.53;;;8.04;69.78
82245;BME280;71849;50.096;14.458;2024-01-06T12:35:41;98688.31;;;8.08;70.55
82245;BME280;71849;50.096;14.458;2024-01-06T12:38:10;98689.00;;;8.27;69.47
82245;BME280;71849;50.096;14.458;2024-01-06T12:40:39;98692.91;;;8.19;70.25
82245;BME280;71849;50.096;14.458;2024-01-06T12:43:07;98687.88;;;8.35;69.32
82245;BME280;71849;50.096;14.458;2024-01-06T12:45:38;98696.00;;;8.69;67.96
82245;BME280;71849;50.096;14.458;2024-01-06T12:48:09;98690.44;;;8.76;67.81
82245;BME280;71849;50.096;14.458;2024-01-06T12:50:38;98695.66;;;8.77;67.94
82245;BME280;71849;50.096;14.458;2024-01-06T12:53:07;98699.56;;;8.47;69.13
82245;BME280;71849;50.096;14.458;2024-01-06T12:55:37;98695.63;;;8.89;67.40
82245;BME280;71849;50.096;14.458;2024-01-06T12:58:08;98699.72;;;9.03;67.25
82245;BME280;71849;50.096;14.458;2024-01-06T13:00:37;98700.03;;;9.18;66.71
82245;BME280;71849;50.096;14.458;2024-01-06T13:03:05;98704.81;;;9.40;65.33
82245;BME280;71849;50.096;14.458;2024-01-06T13:05:37;98700.47;;;8.99;66.29
82245;BME280;71849;50.096;14.458;2024-01-06T13:08:06;98700.91;;;9.07;66.15
82245;BME280;71849;50.096;14.458;2024-01-06T13:10:36;98709.69;;;8.51;68.04
82245;BME280;71849;50.096;14.458;2024-01-06T13:13:04;98710.63;;;8.80;67.33